.
WxDataArchive / Data Records for 2007-07-21
2007-07-20 July 2007 2007-07-22

Data Records for Saturday, 21 July 2007

Time	Temp	Chill	HIndex	Humid	Dewpt	 Wind 	HiWind	WindDir	Rain 	Barom 
-----	----	-----	------	-----	-----	------	------	-------	-----	----- 
00:00	61.0	61.0	61.0	77	53.7	0	0	---	0.00	30.079 
00:05	60.9	60.9	60.9	77	53.6	0	0	---	0.00	30.081 
00:10	60.5	60.5	60.5	78	53.6	0	0	---	0.00	30.082 
00:15	60.4	60.4	60.4	78	53.5	0	0	---	0.00	30.078 
00:20	60.2	60.2	60.2	80	54.0	0	0	---	0.00	30.079 
00:25	60.1	60.1	60.1	80	53.9	0	0	---	0.00	30.079 
00:30	59.9	59.9	59.9	80	53.7	0	0	---	0.00	30.082 
00:35	59.8	59.8	59.8	81	54.0	0	0	---	0.00	30.087 
00:40	59.5	59.5	59.5	80	53.3	0	0	---	0.00	30.088 
00:45	59.3	59.3	59.3	81	53.5	0	0	---	0.00	30.090 
00:50	59.0	59.0	59.0	81	53.2	0	0	---	0.00	30.090 
00:55	58.9	58.9	58.9	83	53.7	0	0	---	0.00	30.092 
01:00	58.7	58.7	58.7	83	53.5	0	0	---	0.00	30.088 
01:05	58.4	58.4	58.4	84	53.6	0	0	---	0.00	30.085 
01:10	58.3	58.3	58.3	84	53.5	0	0	---	0.00	30.082 
01:15	58.1	58.1	58.1	85	53.6	0	0	---	0.00	30.082 
01:20	57.8	57.8	57.8	85	53.3	0	0	---	0.00	30.081 
01:25	57.6	57.6	57.6	86	53.4	0	0	---	0.00	30.082 
01:30	57.6	57.6	57.6	87	53.8	0	0	---	0.00	30.084 
01:35	57.5	57.5	57.5	87	53.7	0	0	---	0.00	30.083 
01:40	57.3	57.3	57.3	87	53.5	0	0	---	0.00	30.083 
01:45	57.2	57.2	57.2	88	53.7	0	0	---	0.00	30.086 
01:50	57.0	57.0	57.0	88	53.5	0	0	---	0.00	30.082 
01:55	57.0	57.0	57.0	88	53.5	0	0	---	0.00	30.085 
02:00	56.9	56.9	56.9	89	53.7	0	0	---	0.00	30.088 
02:05	56.7	56.7	56.7	89	53.5	0	0	---	0.00	30.087 
02:10	56.7	56.7	56.7	89	53.5	0	0	---	0.00	30.086 
02:15	56.6	56.6	56.6	90	53.7	0	0	---	0.00	30.084 
02:20	56.5	56.5	56.5	90	53.6	0	0	---	0.00	30.083 
02:25	56.5	56.5	56.5	91	53.9	0	0	---	0.00	30.086 
02:30	56.5	56.5	56.5	91	53.9	0	0	---	0.00	30.086 
02:35	56.3	56.3	56.3	91	53.7	0	0	---	0.00	30.085 
02:40	56.3	56.3	56.3	91	53.7	0	0	---	0.00	30.083 
02:45	56.2	56.2	56.2	91	53.6	0	0	---	0.00	30.081 
02:50	56.2	56.2	56.2	92	53.9	0	0	---	0.00	30.084 
02:55	56.0	56.0	56.0	92	53.7	0	0	---	0.00	30.087 
03:00	56.0	56.0	56.0	92	53.7	0	0	---	0.00	30.089 
03:05	55.9	55.9	55.9	92	53.6	0	0	---	0.00	30.088 
03:10	55.9	55.9	55.9	92	53.6	0	0	---	0.00	30.089 
03:15	55.7	55.7	55.7	92	53.4	0	0	---	0.00	30.091 
03:20	55.7	55.7	55.7	92	53.4	0	0	---	0.00	30.092 
03:25	55.6	55.6	55.6	91	53.0	0	0	---	0.00	30.093 
03:30	55.6	55.6	55.6	91	53.0	0	0	---	0.00	30.092 
03:35	55.6	55.6	55.6	90	52.7	0	0	---	0.00	30.092 
03:40	55.4	55.4	55.4	90	52.5	0	0	---	0.00	30.095 
03:45	55.3	55.3	55.3	89	52.1	0	0	---	0.00	30.096 
03:50	55.3	55.3	55.3	88	51.8	0	0	---	0.00	30.097 
03:55	55.3	55.3	55.3	87	51.5	0	0	---	0.00	30.097 
04:00	55.3	55.3	55.3	87	51.5	0	1	135	0.00	30.100 
04:05	55.4	55.4	55.4	86	51.3	0	1	135	0.00	30.105 
04:10	55.6	55.6	55.6	86	51.5	0	1	135	0.00	30.107 
04:15	55.6	55.6	55.6	86	51.5	0	0	---	0.00	30.109 
04:20	55.6	55.6	55.6	86	51.5	0	0	---	0.00	30.110 
04:25	55.6	55.6	55.6	86	51.5	0	1	135	0.00	30.110 
04:30	55.7	55.7	55.7	85	51.3	0	2	135	0.00	30.111 
04:35	55.9	55.9	55.9	85	51.5	0	2	135	0.00	30.113 
04:40	56.0	56.0	56.0	84	51.2	0	3	135	0.00	30.114 
04:45	56.0	56.0	56.0	84	51.2	0	3	135	0.00	30.115 
04:50	56.0	56.0	56.0	85	51.6	0	0	---	0.00	30.123 
04:55	56.0	56.0	56.0	85	51.6	0	1	135	0.00	30.124 
05:00	55.9	55.9	55.9	85	51.5	0	1	135	0.00	30.126 
05:05	55.9	55.9	55.9	85	51.5	0	2	135	0.00	30.129 
05:10	55.9	55.9	55.9	85	51.5	1	2	112	0.00	30.130 
05:15	56.0	56.0	56.0	85	51.6	0	3	112	0.00	30.133 
05:20	55.9	55.9	55.9	85	51.5	0	2	112	0.00	30.134 
05:25	55.9	55.9	55.9	85	51.5	0	1	112	0.00	30.139 
05:30	55.9	55.9	55.9	85	51.5	0	0	---	0.00	30.143 
05:35	55.7	55.7	55.7	86	51.6	0	0	---	0.00	30.144 
05:40	55.6	55.6	55.6	87	51.8	0	1	112	0.00	30.146 
05:45	55.7	55.7	55.7	87	51.9	1	2	112	0.00	30.149 
05:50	55.9	55.9	55.9	86	51.8	1	3	112	0.00	30.149 
05:55	55.9	55.9	55.9	86	51.8	1	2	112	0.00	30.151 
06:00	56.0	56.0	56.0	86	51.9	0	2	112	0.00	30.154 
06:05	56.2	56.2	56.2	87	52.4	1	5	112	0.00	30.156 
06:10	56.3	56.3	56.3	86	52.2	0	2	112	0.00	30.159 
06:15	56.6	56.6	56.6	86	52.5	1	3	112	0.00	30.160 
06:20	56.7	56.7	56.7	86	52.6	1	2	112	0.00	30.159 
06:25	57.0	57.0	57.0	86	52.9	0	2	112	0.00	30.159 
06:30	57.8	57.8	57.8	84	53.0	0	2	112	0.00	30.157 
06:35	58.6	58.6	58.6	83	53.4	0	5	112	0.00	30.160 
06:40	59.2	59.2	59.2	81	53.4	1	2	112	0.00	30.162 
06:45	59.8	59.8	59.8	80	53.6	0	2	112	0.00	30.159 
06:50	60.4	60.4	60.4	78	53.5	1	3	112	0.00	30.163 
06:55	60.7	60.7	60.7	76	53.1	2	5	112	0.00	30.170 
07:00	60.9	60.9	60.9	74	52.6	2	5	112	0.00	30.171 
07:05	60.7	60.7	60.7	73	52.0	2	5	112	0.00	30.176 
07:10	60.9	60.9	60.9	72	51.8	2	6	112	0.00	30.179 
07:15	61.0	61.0	61.0	72	51.9	2	4	90	0.00	30.183 
07:20	61.2	61.2	61.2	72	52.1	3	7	90	0.00	30.186 
07:25	61.3	61.3	61.3	73	52.6	2	5	90	0.00	30.187 
07:30	62.0	62.0	62.0	72	52.9	1	4	90	0.00	30.187 
07:35	62.4	62.4	62.4	70	52.5	2	4	90	0.00	30.189 
07:40	62.9	62.9	62.9	69	52.6	2	4	112	0.00	30.190 
07:45	63.4	63.4	63.4	68	52.6	1	3	112	0.00	30.191 
07:50	64.0	64.0	64.0	68	53.2	1	4	112	0.00	30.192 
07:55	64.7	64.7	64.7	65	52.7	1	4	90	0.00	30.195 
08:00	64.8	64.8	64.8	65	52.8	2	4	90	0.00	30.199 
08:05	64.8	64.8	64.8	65	52.8	2	6	90	0.00	30.204 
08:10	64.5	64.5	64.5	65	52.5	3	5	112	0.00	30.203 
08:15	64.3	64.3	64.3	63	51.4	3	5	90	0.00	30.205 
08:20	64.7	64.7	64.7	65	52.7	2	6	90	0.00	30.204 
08:25	65.0	65.0	65.0	64	52.5	2	5	112	0.00	30.205 
08:30	65.3	65.3	65.3	64	52.8	2	6	90	0.00	30.206 
08:35	65.3	65.3	65.3	62	51.9	2	4	90	0.00	30.205 
08:40	65.6	65.6	65.6	61	51.8	2	4	112	0.00	30.206 
08:45	65.6	65.6	65.6	59	50.9	2	4	90	0.00	30.206 
08:50	65.8	65.8	65.8	58	50.6	3	6	90	0.00	30.207 
08:55	66.1	66.1	66.1	61	52.3	2	5	90	0.00	30.207 
09:00	66.9	66.9	66.9	61	53.0	1	4	90	0.00	30.204 
09:05	67.1	67.1	67.1	59	52.3	3	7	90	0.00	30.205 
09:10	66.8	66.8	66.8	59	52.0	3	7	112	0.00	30.204 
09:15	66.9	66.9	66.9	60	52.6	2	6	112	0.00	30.203 
09:20	67.4	67.4	67.4	59	52.6	2	6	90	0.00	30.203 
09:25	67.9	67.9	67.9	60	53.5	2	4	90	0.00	30.204 
09:30	68.4	68.4	68.4	56	52.1	2	5	112	0.00	30.203 
09:35	68.4	68.4	68.4	58	53.0	2	6	90	0.00	30.202 
09:40	68.3	68.3	68.3	57	52.5	3	6	90	0.00	30.198 
09:45	68.3	68.3	68.3	56	52.0	2	5	90	0.00	30.197 
09:50	68.4	68.4	68.4	57	52.6	3	4	90	0.00	30.197 
09:55	68.4	68.4	68.4	56	52.1	3	6	90	0.00	30.199 
10:00	68.4	68.4	68.4	58	53.0	3	5	90	0.00	30.200 
10:05	69.3	69.3	69.3	60	54.8	2	4	90	0.00	30.198 
10:10	69.6	69.6	69.6	58	54.2	3	6	112	0.00	30.199 
10:15	69.6	69.6	69.6	55	52.7	3	13	112	0.00	30.198 
10:20	69.3	69.3	69.3	57	53.4	3	9	90	0.00	30.200 
10:25	69.3	69.3	69.3	57	53.4	3	6	90	0.00	30.200 
10:30	69.6	69.6	69.6	58	54.2	2	6	90	0.00	30.195 
10:35	69.9	69.9	69.9	57	54.0	2	5	90	0.00	30.198 
10:40	70.4	70.4	70.4	57	54.4	2	7	90	0.00	30.200 
10:45	70.8	70.8	70.8	56	54.3	2	5	90	0.00	30.199 
10:50	71.3	71.3	71.3	56	54.8	1	4	112	0.00	30.199 
10:55	71.5	71.5	71.5	54	54.0	3	7	90	0.00	30.196 
11:00	70.9	70.9	70.9	55	53.9	3	7	90	0.00	30.199 
11:05	71.1	71.1	71.1	55	54.1	2	5	90	0.00	30.200 
11:10	71.5	71.5	71.5	55	54.5	2	5	90	0.00	30.199 
11:15	71.6	71.6	71.6	55	54.6	2	6	90	0.00	30.197 
11:20	71.6	71.6	71.6	54	54.1	2	5	90	0.00	30.198 
11:25	71.5	71.5	71.5	51	52.4	3	10	90	0.00	30.196 
11:30	71.6	71.6	71.6	54	54.1	2	7	90	0.00	30.194 
11:35	71.8	71.8	71.8	50	52.1	2	5	90	0.00	30.193 
11:40	71.8	71.8	71.8	50	52.1	2	6	112	0.00	30.191 
11:45	71.8	71.8	71.8	55	54.7	0	3	90	0.00	30.189 
11:50	71.8	71.8	71.8	52	53.2	1	5	292	0.00	30.188 
11:55	72.3	72.3	72.3	53	54.2	2	6	90	0.00	30.187 
12:00	72.3	72.3	72.3	54	54.7	2	5	90	0.00	30.186 
12:05	73.0	73.0	73.0	56	56.4	0	2	90	0.00	30.185 
12:10	73.2	73.2	73.2	51	54.0	2	5	90	0.00	30.181 
12:15	72.8	72.8	72.8	50	53.1	3	6	90	0.00	30.182 
12:20	72.3	72.3	72.3	50	52.6	1	4	112	0.00	30.180 
12:25	72.1	72.1	72.1	51	53.0	1	4	112	0.00	30.182 
12:30	72.7	72.7	72.7	50	53.0	2	6	90	0.00	30.182 
12:35	73.0	73.0	73.0	52	54.3	2	4	112	0.00	30.185 
12:40	73.7	73.7	73.7	46	51.6	1	4	112	0.00	30.182 
12:45	74.0	74.0	74.0	47	52.5	2	4	112	0.00	30.183 
12:50	74.7	74.7	74.7	44	51.3	1	5	112	0.00	30.184 
12:55	74.7	74.7	74.7	46	52.5	1	5	68	0.00	30.180 
13:00	75.3	75.3	77.5	39	48.6	2	4	90	0.00	30.183 
13:05	75.1	75.1	77.6	44	51.7	2	6	112	0.00	30.181 
13:10	75.3	75.3	77.6	41	50.0	1	5	90	0.00	30.183 
13:15	75.3	75.3	77.5	39	48.6	3	6	112	0.00	30.183 
13:20	74.4	74.4	74.4	42	49.8	3	7	112	0.00	30.183 
13:25	73.9	73.9	73.9	41	48.7	3	6	90	0.00	30.182 
13:30	74.4	74.4	74.4	42	49.8	2	6	90	0.00	30.184 
13:35	74.9	74.9	74.9	42	50.2	3	5	112	0.00	30.178 
13:40	75.1	75.1	77.5	39	48.4	2	5	112	0.00	30.178 
13:45	75.3	75.3	77.7	44	51.9	1	6	112	0.00	30.178 
13:50	75.8	75.8	77.6	37	47.7	2	6	90	0.00	30.175 
13:55	75.8	75.8	77.8	43	51.7	2	5	90	0.00	30.175 
14:00	76.1	76.1	77.9	40	50.0	1	4	90	0.00	30.174 
14:05	75.4	75.4	77.6	39	48.7	4	7	90	0.00	30.174 
14:10	74.9	74.9	74.9	38	47.6	3	9	90	0.00	30.176 
14:15	75.3	75.3	77.5	38	47.9	3	5	90	0.00	30.176 
14:20	75.3	75.3	77.5	38	47.9	4	6	90	0.00	30.175 
14:25	75.1	75.1	77.4	37	47.0	3	7	112	0.00	30.175 
14:30	75.4	75.4	77.5	38	48.0	2	5	90	0.00	30.175 
14:35	75.3	75.3	77.5	39	48.6	4	10	90	0.00	30.175 
14:40	75.3	75.3	77.5	37	47.2	3	10	90	0.00	30.174 
14:45	75.4	75.4	77.5	37	47.3	4	9	90	0.00	30.174 
14:50	75.4	75.4	77.4	35	45.8	2	6	90	0.00	30.171 
14:55	75.8	75.8	77.7	39	49.1	3	6	90	0.00	30.169 
15:00	75.6	75.6	77.5	36	46.7	4	7	90	0.00	30.171 
15:05	75.6	75.6	77.5	36	46.7	3	8	90	0.00	30.172 
15:10	75.4	75.4	77.4	36	46.6	3	6	90	0.00	30.173 
15:15	75.3	75.3	77.3	34	45.0	4	11	90	0.00	30.173 
15:20	74.9	74.9	74.9	35	45.4	3	5	90	0.00	30.173 
15:25	75.1	75.1	77.3	35	45.6	3	5	112	0.00	30.171 
15:30	75.4	75.4	77.4	36	46.6	3	6	112	0.00	30.167 
15:35	75.6	75.6	77.5	36	46.7	3	8	90	0.00	30.166 
15:40	75.3	75.3	77.4	35	45.7	5	11	90	0.00	30.165 
15:45	75.3	75.3	77.4	35	45.7	2	5	90	0.00	30.163 
15:50	75.6	75.6	77.5	36	46.7	3	10	90	0.00	30.161 
15:55	75.8	75.8	77.6	37	47.7	3	6	112	0.00	30.161 
16:00	75.6	75.6	77.6	38	48.2	3	9	90	0.00	30.161 
16:05	75.4	75.4	77.4	35	45.8	2	5	90	0.00	30.160 
16:10	75.8	75.8	77.7	39	49.1	2	5	90	0.00	30.157 
16:15	76.0	76.0	77.8	40	49.9	2	7	90	0.00	30.155 
16:20	76.0	76.0	77.7	37	47.8	3	6	90	0.00	30.153 
16:25	76.0	76.0	77.6	36	47.1	3	6	112	0.00	30.151 
16:30	76.0	76.0	77.7	38	48.5	2	5	90	0.00	30.151 
16:35	76.0	76.0	77.7	37	47.8	2	4	90	0.00	30.151 
16:40	76.1	76.1	77.7	37	47.9	2	5	90	0.00	30.148 
16:45	76.0	76.0	77.6	35	46.4	3	6	90	0.00	30.152 
16:50	75.6	75.6	77.6	38	48.2	2	5	90	0.00	30.153 
16:55	75.4	75.4	77.5	38	48.0	2	4	112	0.00	30.152 
17:00	75.3	75.3	77.5	38	47.9	3	7	90	0.00	30.152 
17:05	74.9	74.9	74.9	39	48.3	3	6	90	0.00	30.153 
17:10	74.9	74.9	74.9	40	48.9	2	4	112	0.00	30.150 
17:15	74.7	74.7	74.7	39	48.1	2	4	90	0.00	30.150 
17:20	74.6	74.6	74.6	39	48.0	1	4	90	0.00	30.147 
17:25	74.6	74.6	74.6	38	47.3	3	6	90	0.00	30.148 
17:30	74.6	74.6	74.6	41	49.3	1	4	90	0.00	30.146 
17:35	74.6	74.6	74.6	40	48.7	3	7	112	0.00	30.147 
17:40	74.6	74.6	74.6	40	48.7	1	5	90	0.00	30.145 
17:45	74.4	74.4	74.4	40	48.5	2	4	112	0.00	30.146 
17:50	74.2	74.2	74.2	39	47.6	2	6	90	0.00	30.147 
17:55	74.2	74.2	74.2	39	47.6	2	5	90	0.00	30.147 
18:00	74.0	74.0	74.0	40	48.1	1	4	112	0.00	30.147 
18:05	73.9	73.9	73.9	39	47.4	3	6	90	0.00	30.145 
18:10	73.7	73.7	73.7	39	47.2	1	4	90	0.00	30.145 
18:15	73.5	73.5	73.5	39	47.0	2	4	90	0.00	30.144 
18:20	73.5	73.5	73.5	39	47.0	3	6	90	0.00	30.144 
18:25	73.5	73.5	73.5	40	47.7	2	6	90	0.00	30.143 
18:30	73.3	73.3	73.3	40	47.5	2	4	90	0.00	30.142 
18:35	73.2	73.2	73.2	42	48.7	1	4	90	0.00	30.142 
18:40	73.0	73.0	73.0	41	47.9	1	3	112	0.00	30.144 
18:45	72.8	72.8	72.8	43	49.0	1	4	90	0.00	30.143 
18:50	72.7	72.7	72.7	43	48.9	2	4	90	0.00	30.144 
18:55	72.7	72.7	72.7	43	48.9	1	3	90	0.00	30.147 
19:00	72.5	72.5	72.5	44	49.3	1	5	90	0.00	30.151 
19:05	72.1	72.1	72.1	43	48.4	1	3	90	0.00	30.149 
19:10	72.0	72.0	72.0	43	48.3	1	4	68	0.00	30.147 
19:15	71.6	71.6	71.6	43	47.9	1	4	90	0.00	30.148 
19:20	71.5	71.5	71.5	43	47.8	1	3	112	0.00	30.150 
19:25	71.3	71.3	71.3	44	48.2	0	2	112	0.00	30.152 
19:30	71.1	71.1	71.1	44	48.1	0	3	112	0.00	30.152 
19:35	70.8	70.8	70.8	44	47.8	0	2	112	0.00	30.153 
19:40	70.6	70.6	70.6	46	48.8	0	1	112	0.00	30.152 
19:45	70.3	70.3	70.3	46	48.5	0	2	112	0.00	30.155 
19:50	69.9	69.9	69.9	47	48.7	0	1	112	0.00	30.154 
19:55	69.4	69.4	69.4	48	48.8	0	0	---	0.00	30.155 
20:00	69.1	69.1	69.1	50	49.7	0	0	---	0.00	30.155 
20:05	68.6	68.6	68.6	51	49.7	0	0	---	0.00	30.154 
20:10	68.1	68.1	68.1	52	49.8	0	1	112	0.00	30.156 
20:15	67.8	67.8	67.8	53	50.0	0	0	---	0.00	30.156 
20:20	67.3	67.3	67.3	53	49.6	0	0	---	0.00	30.156 
20:25	66.8	66.8	66.8	55	50.1	0	0	---	0.00	30.156 
20:30	66.3	66.3	66.3	57	50.6	0	0	---	0.00	30.156 
20:35	65.8	65.8	65.8	56	49.7	0	0	---	0.00	30.157 
20:40	65.3	65.3	65.3	57	49.7	0	0	---	0.00	30.158 
20:45	65.0	65.0	65.0	59	50.3	0	0	---	0.00	30.160 
20:50	64.7	64.7	64.7	60	50.5	0	0	---	0.00	30.161 
20:55	64.3	64.3	64.3	61	50.6	0	0	---	0.00	30.167 
21:00	64.0	64.0	64.0	61	50.3	0	0	---	0.00	30.172 
21:05	63.7	63.7	63.7	62	50.4	0	0	---	0.00	30.170 
21:10	63.4	63.4	63.4	62	50.1	0	0	---	0.00	30.175 
21:15	63.1	63.1	63.1	63	50.3	0	0	---	0.00	30.176 
21:20	62.7	62.7	62.7	63	49.9	0	0	---	0.00	30.177 
21:25	62.4	62.4	62.4	64	50.1	0	0	---	0.00	30.179 
21:30	62.3	62.3	62.3	65	50.4	0	0	---	0.00	30.181 
21:35	62.0	62.0	62.0	66	50.5	0	0	---	0.00	30.182 
21:40	61.6	61.6	61.6	67	50.5	0	0	---	0.00	30.185 
21:45	61.5	61.5	61.5	68	50.8	0	0	---	0.00	30.187 
21:50	61.3	61.3	61.3	69	51.0	0	0	---	0.00	30.191 
21:55	61.2	61.2	61.2	70	51.3	0	0	---	0.00	30.193 
22:00	60.9	60.9	60.9	71	51.4	0	0	---	0.00	30.193 
22:05	60.7	60.7	60.7	72	51.6	0	0	---	0.00	30.189 
22:10	60.5	60.5	60.5	73	51.8	0	0	---	0.00	30.189 
22:15	60.2	60.2	60.2	73	51.5	0	0	---	0.00	30.189 
22:20	59.9	59.9	59.9	74	51.6	0	0	---	0.00	30.188 
22:25	59.8	59.8	59.8	75	51.9	0	0	---	0.00	30.185 
22:30	59.5	59.5	59.5	75	51.6	0	0	---	0.00	30.184 
22:35	59.3	59.3	59.3	76	51.7	0	0	---	0.00	30.182 
22:40	59.2	59.2	59.2	76	51.6	0	0	---	0.00	30.182 
22:45	58.9	58.9	58.9	76	51.3	0	0	---	0.00	30.181 
22:50	58.9	58.9	58.9	77	51.7	0	0	---	0.00	30.182 
22:55	58.7	58.7	58.7	77	51.5	0	0	---	0.00	30.182 
23:00	58.6	58.6	58.6	78	51.8	0	0	---	0.00	30.184 
23:05	58.4	58.4	58.4	79	51.9	0	0	---	0.00	30.184 
23:10	58.4	58.4	58.4	81	52.6	0	0	---	0.00	30.184 
23:15	58.3	58.3	58.3	81	52.5	0	0	---	0.00	30.185 
23:20	58.1	58.1	58.1	81	52.3	0	0	---	0.00	30.186 
23:25	58.0	58.0	58.0	82	52.5	0	0	---	0.00	30.188 
23:30	57.8	57.8	57.8	82	52.3	0	0	---	0.00	30.188 
23:35	57.6	57.6	57.6	82	52.1	0	0	---	0.00	30.188 
23:40	57.5	57.5	57.5	83	52.4	0	0	---	0.00	30.187 
23:45	57.3	57.3	57.3	83	52.2	0	0	---	0.00	30.189 
23:50	57.2	57.2	57.2	84	52.4	0	0	---	0.00	30.189 
23:55	57.2	57.2	57.2	84	52.4	0	0	---	0.00	30.188 

CoCoRaHS
IN-AL-39
A2 Web Hosting
Creative Commons License
GoDaddy
Look for:

loaded 2017-12-13 10:01:48 • last modified 2010-11-18 10:43:29
Privacy PolicyDisclaimer
• wx.awcolley.com is powered by PmWiki v.2002016 •
• all content (unless otherwise noted) © 2017 A W Colley